Terminal Aerodrome Forecast
Issued by NWS Wilmington, OH

Current Version | Previous Version | Graphics & Text | Print | Product List | Glossary On
Versions: 1 2 3 4 5 6 7 8 9 10 11 12 13 14 15 16 17 18 19 20 21 22 23 24 25 26 27 28
000
FTUS41 KILN 221100
TAFCMH
TAF
KCMH 221132Z 2212/2312 34009KT P6SM FEW023 OVC035
      TEMPO 2212/2214 BKN021
     FM221400 34008KT P6SM SCT035
      TEMPO 2214/2216 BKN025
     FM221900 33008KT P6SM SKC
     FM230100 VRB03KT P6SM SKC=

USA.gov is the U.S. government's official web portal to all federal, state and local government web resources and services.